Mostly Cloudy Current Weather (METAR) For Antalya Airport

All times on the weather descriptions are local

Observed at 19:50 - (27 mins ago)

Mostly Cloudy

9°C

Mostly Cloudy
Clouds: Few Clouds at 1,500ft, Broken Clouds at 2,500ft
Wind: 340° at 05 knots
Visibility: Greater than 10km
QNH: 1012
Dew Point: 8°C
Runway in Use: Runways 36L/C/R

Sunrise Today: 06:59
Sunset Today: 17:19

Forecast Weather (TAF) For Antalya Airport

Issued at 02:00 - (1 day 5 hrs ago)


Runway in Use: Unable to determine, wind is clam

Forecast valid until 02:00 on Saturday

METAR/TAF RAW METAR / TAF

LTAI 291750Z 34005KT 9999 FEW015CB BKN025 09/08 Q1012 NOSIG

Weather Widget

Put weather from any of our airports on your website with our weather widget.

Find Another Search

Airport Search


Please Wait Please Wait - Loading
Close
Close

Login

Username:

Password:

Remember Me:

Remember me on this computer

Forgotten your password? Get a reset password sent to your registered e-mail address

Close

User Private Message

Subject:

Message: